sensor_id;sensor_type;location;lat;lon;timestamp;P1;durP1;ratioP1;P2;durP2;ratioP2
4074;SDS011;2052;53.522;9.806;2023-12-14T00:01:34;3.90;;;1.90;;
4074;SDS011;2052;53.522;9.806;2023-12-14T00:04:00;4.10;;;2.20;;
4074;SDS011;2052;53.522;9.806;2023-12-14T00:06:29;2.77;;;2.43;;
4074;SDS011;2052;53.522;9.806;2023-12-14T00:08:55;2.80;;;2.10;;
4074;SDS011;2052;53.522;9.806;2023-12-14T00:11:22;4.80;;;2.10;;
4074;SDS011;2052;53.522;9.806;2023-12-14T00:13:48;3.13;;;2.53;;
4074;SDS011;2052;53.522;9.806;2023-12-14T00:16:15;5.00;;;2.50;;
4074;SDS011;2052;53.522;9.806;2023-12-14T00:18:42;5.40;;;2.70;;
4074;SDS011;2052;53.522;9.806;2023-12-14T00:21:08;3.27;;;2.63;;
4074;SDS011;2052;53.522;9.806;2023-12-14T00:23:36;3.90;;;2.53;;
4074;SDS011;2052;53.522;9.806;2023-12-14T00:26:03;5.20;;;2.93;;
4074;SDS011;2052;53.522;9.806;2023-12-14T00:28:30;4.00;;;2.60;;
4074;SDS011;2052;53.522;9.806;2023-12-14T00:30:56;4.13;;;2.70;;
4074;SDS011;2052;53.522;9.806;2023-12-14T00:33:23;4.07;;;2.47;;
4074;SDS011;2052;53.522;9.806;2023-12-14T00:35:49;4.33;;;2.70;;
4074;SDS011;2052;53.522;9.806;2023-12-14T00:38:17;8.60;;;2.40;;
4074;SDS011;2052;53.522;9.806;2023-12-14T00:40:45;8.03;;;2.90;;
4074;SDS011;2052;53.522;9.806;2023-12-14T00:43:11;2.17;;;1.97;;
4074;SDS011;2052;53.522;9.806;2023-12-14T00:45:38;7.87;;;2.03;;
4074;SDS011;2052;53.522;9.806;2023-12-14T00:48:06;6.20;;;2.20;;
4074;SDS011;2052;53.522;9.806;2023-12-14T00:50:32;2.30;;;1.90;;
4074;SDS011;2052;53.522;9.806;2023-12-14T00:52:59;5.00;;;2.90;;
4074;SDS011;2052;53.522;9.806;2023-12-14T00:55:25;4.33;;;2.23;;
4074;SDS011;2052;53.522;9.806;2023-12-14T00:57:53;5.40;;;2.23;;
4074;SDS011;2052;53.522;9.806;2023-12-14T01:00:20;4.43;;;2.27;;
4074;SDS011;2052;53.522;9.806;2023-12-14T01:02:47;5.10;;;2.10;;
4074;SDS011;2052;53.522;9.806;2023-12-14T01:05:13;4.53;;;2.03;;
4074;SDS011;2052;53.522;9.806;2023-12-14T01:07:40;3.97;;;2.00;;
4074;SDS011;2052;53.522;9.806;2023-12-14T01:10:07;3.73;;;1.93;;
4074;SDS011;2052;53.522;9.806;2023-12-14T01:12:34;3.23;;;2.37;;
4074;SDS011;2052;53.522;9.806;2023-12-14T01:15:02;6.37;;;2.13;;
4074;SDS011;2052;53.522;9.806;2023-12-14T01:17:29;5.03;;;2.07;;
4074;SDS011;2052;53.522;9.806;2023-12-14T01:19:55;2.80;;;2.07;;
4074;SDS011;2052;53.522;9.806;2023-12-14T01:22:22;3.30;;;1.83;;
4074;SDS011;2052;53.522;9.806;2023-12-14T01:24:49;2.23;;;1.70;;
4074;SDS011;2052;53.522;9.806;2023-12-14T01:27:16;5.40;;;1.63;;
4074;SDS011;2052;53.522;9.806;2023-12-14T01:29:43;3.37;;;2.33;;
4074;SDS011;2052;53.522;9.806;2023-12-14T01:32:11;3.40;;;1.73;;
4074;SDS011;2052;53.522;9.806;2023-12-14T01:34:37;2.83;;;1.80;;
4074;SDS011;2052;53.522;9.806;2023-12-14T01:37:04;5.27;;;1.70;;
4074;SDS011;2052;53.522;9.806;2023-12-14T01:39:30;2.40;;;1.33;;
4074;SDS011;2052;53.522;9.806;2023-12-14T01:41:57;2.27;;;2.07;;
4074;SDS011;2052;53.522;9.806;2023-12-14T01:44:23;2.23;;;1.90;;
4074;SDS011;2052;53.522;9.806;2023-12-14T01:46:50;4.53;;;2.00;;
4074;SDS011;2052;53.522;9.806;2023-12-14T01:49:18;4.07;;;2.27;;
4074;SDS011;2052;53.522;9.806;2023-12-14T01:51:46;4.07;;;2.40;;
4074;SDS011;2052;53.522;9.806;2023-12-14T01:54:12;4.00;;;2.00;;
4074;SDS011;2052;53.522;9.806;2023-12-14T01:56:39;6.10;;;2.40;;
4074;SDS011;2052;53.522;9.806;2023-12-14T01:59:06;2.57;;;2.07;;
4074;SDS011;2052;53.522;9.806;2023-12-14T02:01:34;5.37;;;2.03;;
4074;SDS011;2052;53.522;9.806;2023-12-14T02:04:04;3.37;;;1.67;;
4074;SDS011;2052;53.522;9.806;2023-12-14T02:06:33;3.63;;;2.10;;
4074;SDS011;2052;53.522;9.806;2023-12-14T02:09:00;4.63;;;1.90;;
4074;SDS011;2052;53.522;9.806;2023-12-14T02:11:26;2.37;;;1.50;;
4074;SDS011;2052;53.522;9.806;2023-12-14T02:13:53;2.43;;;2.00;;
4074;SDS011;2052;53.522;9.806;2023-12-14T02:16:19;2.43;;;2.07;;
4074;SDS011;2052;53.522;9.806;2023-12-14T02:18:46;2.10;;;1.80;;
4074;SDS011;2052;53.522;9.806;2023-12-14T02:21:13;4.27;;;1.87;;
4074;SDS011;2052;53.522;9.806;2023-12-14T02:23:45;4.87;;;1.60;;
4074;SDS011;2052;53.522;9.806;2023-12-14T02:26:12;3.43;;;1.80;;
4074;SDS011;2052;53.522;9.806;2023-12-14T02:28:38;3.03;;;1.73;;
4074;SDS011;2052;53.522;9.806;2023-12-14T02:31:05;3.40;;;1.70;;
4074;SDS011;2052;53.522;9.806;2023-12-14T02:33:32;4.90;;;1.97;;
4074;SDS011;2052;53.522;9.806;2023-12-14T02:35:59;1.77;;;1.67;;
4074;SDS011;2052;53.522;9.806;2023-12-14T02:38:25;4.07;;;1.90;;
4074;SDS011;2052;53.522;9.806;2023-12-14T02:40:53;3.00;;;1.87;;
4074;SDS011;2052;53.522;9.806;2023-12-14T02:43:22;4.03;;;1.40;;
4074;SDS011;2052;53.522;9.806;2023-12-14T02:45:49;7.60;;;2.33;;
4074;SDS011;2052;53.522;9.806;2023-12-14T02:48:15;2.60;;;1.70;;
4074;SDS011;2052;53.522;9.806;2023-12-14T02:50:42;2.57;;;1.50;;
4074;SDS011;2052;53.522;9.806;2023-12-14T02:53:09;2.77;;;1.90;;
4074;SDS011;2052;53.522;9.806;2023-12-14T02:55:35;2.73;;;1.87;;
4074;SDS011;2052;53.522;9.806;2023-12-14T02:58:03;2.20;;;1.67;;
4074;SDS011;2052;53.522;9.806;2023-12-14T03:00:30;9.00;;;2.20;;
4074;SDS011;2052;53.522;9.806;2023-12-14T03:02:57;2.67;;;2.10;;
4074;SDS011;2052;53.522;9.806;2023-12-14T03:05:24;2.40;;;2.03;;
4074;SDS011;2052;53.522;9.806;2023-12-14T03:07:51;4.53;;;2.40;;
4074;SDS011;2052;53.522;9.806;2023-12-14T03:10:17;4.27;;;2.57;;
4074;SDS011;2052;53.522;9.806;2023-12-14T03:12:44;3.70;;;2.20;;
4074;SDS011;2052;53.522;9.806;2023-12-14T03:15:12;4.13;;;2.53;;
4074;SDS011;2052;53.522;9.806;2023-12-14T03:17:38;3.03;;;2.03;;
4074;SDS011;2052;53.522;9.806;2023-12-14T03:20:05;2.67;;;2.23;;
4074;SDS011;2052;53.522;9.806;2023-12-14T03:22:33;2.90;;;2.40;;
4074;SDS011;2052;53.522;9.806;2023-12-14T03:24:59;5.23;;;4.63;;
4074;SDS011;2052;53.522;9.806;2023-12-14T03:27:26;3.53;;;2.33;;
4074;SDS011;2052;53.522;9.806;2023-12-14T03:29:52;5.33;;;2.40;;
4074;SDS011;2052;53.522;9.806;2023-12-14T03:32:20;5.63;;;2.67;;
4074;SDS011;2052;53.522;9.806;2023-12-14T03:34:47;5.93;;;2.23;;
4074;SDS011;2052;53.522;9.806;2023-12-14T03:37:13;6.43;;;2.60;;
4074;SDS011;2052;53.522;9.806;2023-12-14T03:39:40;4.23;;;1.83;;
4074;SDS011;2052;53.522;9.806;2023-12-14T03:42:06;3.53;;;2.33;;
4074;SDS011;2052;53.522;9.806;2023-12-14T03:44:33;4.40;;;2.37;;
4074;SDS011;2052;53.522;9.806;2023-12-14T03:46:59;6.87;;;2.70;;
4074;SDS011;2052;53.522;9.806;2023-12-14T03:49:27;3.83;;;1.93;;
4074;SDS011;2052;53.522;9.806;2023-12-14T03:51:54;4.47;;;2.10;;
4074;SDS011;2052;53.522;9.806;2023-12-14T03:54:21;2.63;;;1.80;;
4074;SDS011;2052;53.522;9.806;2023-12-14T03:56:47;2.50;;;1.80;;
4074;SDS011;2052;53.522;9.806;2023-12-14T03:59:14;2.67;;;2.00;;
4074;SDS011;2052;53.522;9.806;2023-12-14T04:01:40;3.80;;;2.20;;
4074;SDS011;2052;53.522;9.806;2023-12-14T04:04:07;10.43;;;2.93;;
4074;SDS011;2052;53.522;9.806;2023-12-14T04:06:35;8.00;;;2.57;;
4074;SDS011;2052;53.522;9.806;2023-12-14T04:09:02;3.30;;;2.20;;
4074;SDS011;2052;53.522;9.806;2023-12-14T04:11:28;4.30;;;1.90;;
4074;SDS011;2052;53.522;9.806;2023-12-14T04:13:55;6.33;;;2.20;;
4074;SDS011;2052;53.522;9.806;2023-12-14T04:16:22;2.57;;;1.90;;
4074;SDS011;2052;53.522;9.806;2023-12-14T04:18:49;2.70;;;2.10;;
4074;SDS011;2052;53.522;9.806;2023-12-14T04:21:15;3.23;;;2.17;;
4074;SDS011;2052;53.522;9.806;2023-12-14T04:23:43;3.10;;;2.13;;
4074;SDS011;2052;53.522;9.806;2023-12-14T04:26:10;4.50;;;1.97;;
4074;SDS011;2052;53.522;9.806;2023-12-14T04:28:38;5.83;;;2.50;;
4074;SDS011;2052;53.522;9.806;2023-12-14T04:31:05;4.03;;;2.57;;
4074;SDS011;2052;53.522;9.806;2023-12-14T04:33:32;5.40;;;2.00;;
4074;SDS011;2052;53.522;9.806;2023-12-14T04:35:58;6.53;;;2.90;;
4074;SDS011;2052;53.522;9.806;2023-12-14T04:38:25;4.67;;;2.57;;
4074;SDS011;2052;53.522;9.806;2023-12-14T04:40:53;7.93;;;2.17;;
4074;SDS011;2052;53.522;9.806;2023-12-14T04:43:19;6.03;;;3.13;;
4074;SDS011;2052;53.522;9.806;2023-12-14T04:45:46;2.43;;;2.00;;
4074;SDS011;2052;53.522;9.806;2023-12-14T04:48:13;5.20;;;2.10;;
4074;SDS011;2052;53.522;9.806;2023-12-14T04:50:39;5.80;;;2.77;;
4074;SDS011;2052;53.522;9.806;2023-12-14T04:53:06;3.97;;;2.37;;
4074;SDS011;2052;53.522;9.806;2023-12-14T04:55:33;4.53;;;2.67;;
4074;SDS011;2052;53.522;9.806;2023-12-14T04:58:01;2.93;;;2.23;;
4074;SDS011;2052;53.522;9.806;2023-12-14T05:00:28;4.27;;;2.50;;
4074;SDS011;2052;53.522;9.806;2023-12-14T05:02:56;3.07;;;2.40;;
4074;SDS011;2052;53.522;9.806;2023-12-14T05:05:23;3.80;;;2.47;;
4074;SDS011;2052;53.522;9.806;2023-12-14T05:07:49;4.57;;;2.53;;
4074;SDS011;2052;53.522;9.806;2023-12-14T05:10:16;5.47;;;2.70;;
4074;SDS011;2052;53.522;9.806;2023-12-14T05:12:42;6.00;;;2.50;;
4074;SDS011;2052;53.522;9.806;2023-12-14T05:15:11;4.37;;;2.60;;
4074;SDS011;2052;53.522;9.806;2023-12-14T05:17:38;4.97;;;2.90;;
4074;SDS011;2052;53.522;9.806;2023-12-14T05:20:07;3.93;;;2.60;;
4074;SDS011;2052;53.522;9.806;2023-12-14T05:22:34;5.77;;;3.40;;
4074;SDS011;2052;53.522;9.806;2023-12-14T05:25:01;4.17;;;3.30;;
4074;SDS011;2052;53.522;9.806;2023-12-14T05:27:30;8.80;;;3.77;;
4074;SDS011;2052;53.522;9.806;2023-12-14T05:29:57;4.60;;;2.97;;
4074;SDS011;2052;53.522;9.806;2023-12-14T05:32:25;6.53;;;3.13;;
4074;SDS011;2052;53.522;9.806;2023-12-14T05:34:51;6.00;;;2.53;;
4074;SDS011;2052;53.522;9.806;2023-12-14T05:37:18;6.60;;;3.17;;
4074;SDS011;2052;53.522;9.806;2023-12-14T05:39:44;5.40;;;3.33;;
4074;SDS011;2052;53.522;9.806;2023-12-14T05:42:11;4.10;;;2.73;;
4074;SDS011;2052;53.522;9.806;2023-12-14T05:44:38;6.70;;;3.17;;
4074;SDS011;2052;53.522;9.806;2023-12-14T05:47:04;5.43;;;3.53;;
4074;SDS011;2052;53.522;9.806;2023-12-14T05:49:32;9.87;;;4.23;;
4074;SDS011;2052;53.522;9.806;2023-12-14T05:51:59;7.93;;;4.10;;
4074;SDS011;2052;53.522;9.806;2023-12-14T05:54:26;7.47;;;3.50;;
4074;SDS011;2052;53.522;9.806;2023-12-14T05:56:53;7.70;;;3.00;;
4074;SDS011;2052;53.522;9.806;2023-12-14T05:59:19;4.70;;;3.20;;
4074;SDS011;2052;53.522;9.806;2023-12-14T06:01:46;6.60;;;3.27;;
4074;SDS011;2052;53.522;9.806;2023-12-14T06:04:13;5.37;;;3.03;;
4074;SDS011;2052;53.522;9.806;2023-12-14T06:06:41;8.83;;;3.70;;
4074;SDS011;2052;53.522;9.806;2023-12-14T06:09:07;7.53;;;4.53;;
4074;SDS011;2052;53.522;9.806;2023-12-14T06:11:34;7.90;;;4.23;;
4074;SDS011;2052;53.522;9.806;2023-12-14T06:14:01;6.57;;;3.70;;
4074;SDS011;2052;53.522;9.806;2023-12-14T06:16:29;11.57;;;5.30;;
4074;SDS011;2052;53.522;9.806;2023-12-14T06:18:56;6.50;;;4.00;;
4074;SDS011;2052;53.522;9.806;2023-12-14T06:21:22;7.20;;;4.33;;
4074;SDS011;2052;53.522;9.806;2023-12-14T06:23:52;10.13;;;4.97;;
4074;SDS011;2052;53.522;9.806;2023-12-14T06:26:19;10.13;;;4.67;;
4074;SDS011;2052;53.522;9.806;2023-12-14T06:28:46;7.10;;;4.10;;
4074;SDS011;2052;53.522;9.806;2023-12-14T06:31:12;10.00;;;5.20;;
4074;SDS011;2052;53.522;9.806;2023-12-14T06:33:40;7.50;;;4.50;;
4074;SDS011;2052;53.522;9.806;2023-12-14T06:36:07;8.87;;;4.20;;
4074;SDS011;2052;53.522;9.806;2023-12-14T06:38:34;11.33;;;5.07;;
4074;SDS011;2052;53.522;9.806;2023-12-14T06:41:02;12.03;;;5.00;;
4074;SDS011;2052;53.522;9.806;2023-12-14T06:43:29;8.40;;;5.20;;
4074;SDS011;2052;53.522;9.806;2023-12-14T06:45:55;8.70;;;4.80;;
4074;SDS011;2052;53.522;9.806;2023-12-14T06:48:23;9.23;;;4.60;;
4074;SDS011;2052;53.522;9.806;2023-12-14T06:50:50;10.17;;;5.33;;
4074;SDS011;2052;53.522;9.806;2023-12-14T06:53:19;10.80;;;5.20;;
4074;SDS011;2052;53.522;9.806;2023-12-14T06:55:48;8.17;;;5.17;;
4074;SDS011;2052;53.522;9.806;2023-12-14T06:58:16;12.60;;;5.10;;
4074;SDS011;2052;53.522;9.806;2023-12-14T07:00:43;9.03;;;4.73;;
4074;SDS011;2052;53.522;9.806;2023-12-14T07:03:09;8.00;;;4.50;;
4074;SDS011;2052;53.522;9.806;2023-12-14T07:05:36;12.63;;;5.47;;
4074;SDS011;2052;53.522;9.806;2023-12-14T07:08:03;15.60;;;5.53;;
4074;SDS011;2052;53.522;9.806;2023-12-14T07:10:29;8.40;;;5.10;;
4074;SDS011;2052;53.522;9.806;2023-12-14T07:12:56;13.03;;;4.90;;
4074;SDS011;2052;53.522;9.806;2023-12-14T07:15:25;10.67;;;4.87;;
4074;SDS011;2052;53.522;9.806;2023-12-14T07:17:51;8.90;;;5.17;;
4074;SDS011;2052;53.522;9.806;2023-12-14T07:20:18;10.03;;;5.17;;
4074;SDS011;2052;53.522;9.806;2023-12-14T07:22:46;10.53;;;5.07;;
4074;SDS011;2052;53.522;9.806;2023-12-14T07:25:13;12.40;;;5.60;;
4074;SDS011;2052;53.522;9.806;2023-12-14T07:27:40;8.07;;;4.60;;
4074;SDS011;2052;53.522;9.806;2023-12-14T07:30:07;8.90;;;5.30;;
4074;SDS011;2052;53.522;9.806;2023-12-14T07:32:36;8.93;;;5.20;;
4074;SDS011;2052;53.522;9.806;2023-12-14T07:35:03;9.97;;;5.57;;
4074;SDS011;2052;53.522;9.806;2023-12-14T07:37:31;12.13;;;6.40;;
4074;SDS011;2052;53.522;9.806;2023-12-14T07:39:58;10.53;;;5.37;;
4074;SDS011;2052;53.522;9.806;2023-12-14T07:42:24;13.07;;;5.90;;
4074;SDS011;2052;53.522;9.806;2023-12-14T07:44:51;13.50;;;6.73;;
4074;SDS011;2052;53.522;9.806;2023-12-14T07:47:19;19.63;;;5.30;;
4074;SDS011;2052;53.522;9.806;2023-12-14T07:49:47;13.30;;;6.20;;
4074;SDS011;2052;53.522;9.806;2023-12-14T07:52:14;10.90;;;6.23;;
4074;SDS011;2052;53.522;9.806;2023-12-14T07:54:40;10.60;;;6.03;;
4074;SDS011;2052;53.522;9.806;2023-12-14T07:57:07;17.20;;;5.50;;
4074;SDS011;2052;53.522;9.806;2023-12-14T07:59:33;10.33;;;5.60;;
4074;SDS011;2052;53.522;9.806;2023-12-14T08:02:00;18.37;;;5.93;;
4074;SDS011;2052;53.522;9.806;2023-12-14T08:04:26;12.67;;;7.10;;
4074;SDS011;2052;53.522;9.806;2023-12-14T08:06:55;13.33;;;5.90;;
4074;SDS011;2052;53.522;9.806;2023-12-14T08:09:21;9.57;;;5.20;;
4074;SDS011;2052;53.522;9.806;2023-12-14T08:11:48;11.40;;;6.30;;
4074;SDS011;2052;53.522;9.806;2023-12-14T08:14:17;12.20;;;5.50;;
4074;SDS011;2052;53.522;9.806;2023-12-14T08:16:43;14.73;;;6.17;;
4074;SDS011;2052;53.522;9.806;2023-12-14T08:19:10;12.00;;;6.80;;
4074;SDS011;2052;53.522;9.806;2023-12-14T08:21:37;9.93;;;6.07;;
4074;SDS011;2052;53.522;9.806;2023-12-14T08:24:05;10.83;;;6.70;;
4074;SDS011;2052;53.522;9.806;2023-12-14T08:26:32;10.40;;;5.67;;
4074;SDS011;2052;53.522;9.806;2023-12-14T08:28:59;9.30;;;5.80;;
4074;SDS011;2052;53.522;9.806;2023-12-14T08:31:25;12.67;;;6.10;;
4074;SDS011;2052;53.522;9.806;2023-12-14T08:33:52;11.00;;;5.57;;
4074;SDS011;2052;53.522;9.806;2023-12-14T08:36:18;11.17;;;6.10;;
4074;SDS011;2052;53.522;9.806;2023-12-14T08:38:45;13.13;;;6.57;;
4074;SDS011;2052;53.522;9.806;2023-12-14T08:41:13;9.40;;;5.20;;
4074;SDS011;2052;53.522;9.806;2023-12-14T08:43:40;16.07;;;5.70;;
4074;SDS011;2052;53.522;9.806;2023-12-14T08:46:07;11.57;;;6.00;;
4074;SDS011;2052;53.522;9.806;2023-12-14T08:48:35;12.37;;;6.10;;
4074;SDS011;2052;53.522;9.806;2023-12-14T08:51:02;10.30;;;6.00;;
4074;SDS011;2052;53.522;9.806;2023-12-14T08:53:29;17.03;;;5.73;;
4074;SDS011;2052;53.522;9.806;2023-12-14T08:55:56;10.27;;;5.60;;
4074;SDS011;2052;53.522;9.806;2023-12-14T08:58:23;8.33;;;4.67;;
4074;SDS011;2052;53.522;9.806;2023-12-14T09:00:50;8.73;;;4.50;;
4074;SDS011;2052;53.522;9.806;2023-12-14T09:03:17;13.17;;;5.80;;
4074;SDS011;2052;53.522;9.806;2023-12-14T09:05:44;11.57;;;5.30;;
4074;SDS011;2052;53.522;9.806;2023-12-14T09:08:11;8.60;;;5.70;;
4074;SDS011;2052;53.522;9.806;2023-12-14T09:10:37;9.13;;;5.40;;
4074;SDS011;2052;53.522;9.806;2023-12-14T09:13:04;13.87;;;5.13;;
4074;SDS011;2052;53.522;9.806;2023-12-14T09:15:32;9.00;;;5.37;;
4074;SDS011;2052;53.522;9.806;2023-12-14T09:17:59;9.37;;;5.50;;
4074;SDS011;2052;53.522;9.806;2023-12-14T09:20:26;9.23;;;5.43;;
4074;SDS011;2052;53.522;9.806;2023-12-14T09:22:53;7.97;;;5.07;;
4074;SDS011;2052;53.522;9.806;2023-12-14T09:25:19;13.53;;;5.63;;
4074;SDS011;2052;53.522;9.806;2023-12-14T09:27:46;6.67;;;4.67;;
4074;SDS011;2052;53.522;9.806;2023-12-14T09:30:13;9.07;;;4.47;;
4074;SDS011;2052;53.522;9.806;2023-12-14T09:32:41;9.00;;;4.73;;
4074;SDS011;2052;53.522;9.806;2023-12-14T09:35:09;6.50;;;4.50;;
4074;SDS011;2052;53.522;9.806;2023-12-14T09:37:35;13.20;;;5.10;;
4074;SDS011;2052;53.522;9.806;2023-12-14T09:40:02;9.70;;;4.60;;
4074;SDS011;2052;53.522;9.806;2023-12-14T09:42:29;9.33;;;5.30;;
4074;SDS011;2052;53.522;9.806;2023-12-14T09:45:04;7.73;;;4.57;;
4074;SDS011;2052;53.522;9.806;2023-12-14T09:47:33;7.73;;;5.00;;
4074;SDS011;2052;53.522;9.806;2023-12-14T09:50:01;14.43;;;5.43;;
4074;SDS011;2052;53.522;9.806;2023-12-14T09:52:28;9.17;;;4.90;;
4074;SDS011;2052;53.522;9.806;2023-12-14T09:54:55;11.50;;;5.77;;
4074;SDS011;2052;53.522;9.806;2023-12-14T09:57:22;9.30;;;5.50;;
4074;SDS011;2052;53.522;9.806;2023-12-14T09:59:51;9.10;;;5.00;;
4074;SDS011;2052;53.522;9.806;2023-12-14T10:02:17;10.47;;;5.10;;
4074;SDS011;2052;53.522;9.806;2023-12-14T10:04:45;10.47;;;5.30;;
4074;SDS011;2052;53.522;9.806;2023-12-14T10:07:13;11.67;;;6.43;;
4074;SDS011;2052;53.522;9.806;2023-12-14T10:09:39;10.60;;;5.20;;
4074;SDS011;2052;53.522;9.806;2023-12-14T10:12:07;9.50;;;5.00;;
4074;SDS011;2052;53.522;9.806;2023-12-14T10:14:34;8.83;;;4.77;;
4074;SDS011;2052;53.522;9.806;2023-12-14T10:17:13;12.33;;;5.20;;
4074;SDS011;2052;53.522;9.806;2023-12-14T10:19:42;7.33;;;5.17;;
4074;SDS011;2052;53.522;9.806;2023-12-14T10:22:09;8.87;;;4.90;;
4074;SDS011;2052;53.522;9.806;2023-12-14T10:24:37;8.13;;;4.73;;
4074;SDS011;2052;53.522;9.806;2023-12-14T10:27:04;7.83;;;5.10;;
4074;SDS011;2052;53.522;9.806;2023-12-14T10:29:32;10.73;;;6.07;;
4074;SDS011;2052;53.522;9.806;2023-12-14T10:31:59;9.00;;;6.13;;
4074;SDS011;2052;53.522;9.806;2023-12-14T10:34:25;12.30;;;6.60;;
4074;SDS011;2052;53.522;9.806;2023-12-14T10:36:52;11.93;;;6.40;;
4074;SDS011;2052;53.522;9.806;2023-12-14T10:39:17;11.03;;;4.90;;
4074;SDS011;2052;53.522;9.806;2023-12-14T10:41:46;9.57;;;5.23;;
4074;SDS011;2052;53.522;9.806;2023-12-14T10:44:14;11.47;;;5.83;;
4074;SDS011;2052;53.522;9.806;2023-12-14T10:46:41;8.13;;;4.60;;
4074;SDS011;2052;53.522;9.806;2023-12-14T10:49:08;10.07;;;5.70;;
4074;SDS011;2052;53.522;9.806;2023-12-14T10:51:36;10.03;;;5.70;;
4074;SDS011;2052;53.522;9.806;2023-12-14T10:54:07;9.43;;;5.07;;
4074;SDS011;2052;53.522;9.806;2023-12-14T10:56:34;8.60;;;5.50;;
4074;SDS011;2052;53.522;9.806;2023-12-14T10:59:02;7.13;;;4.77;;
4074;SDS011;2052;53.522;9.806;2023-12-14T11:01:30;11.97;;;4.97;;
4074;SDS011;2052;53.522;9.806;2023-12-14T11:04:00;8.90;;;4.57;;
4074;SDS011;2052;53.522;9.806;2023-12-14T11:06:29;10.13;;;5.33;;
4074;SDS011;2052;53.522;9.806;2023-12-14T11:08:58;12.27;;;5.40;;
4074;SDS011;2052;53.522;9.806;2023-12-14T11:11:29;9.43;;;5.50;;
4074;SDS011;2052;53.522;9.806;2023-12-14T11:13:55;7.73;;;4.50;;
4074;SDS011;2052;53.522;9.806;2023-12-14T11:16:24;9.20;;;5.50;;
4074;SDS011;2052;53.522;9.806;2023-12-14T11:22:08;7.13;;;4.53;;
4074;SDS011;2052;53.522;9.806;2023-12-14T11:24:50;9.80;;;5.07;;
4074;SDS011;2052;53.522;9.806;2023-12-14T11:27:19;13.70;;;5.00;;
4074;SDS011;2052;53.522;9.806;2023-12-14T11:29:47;10.93;;;4.90;;
4074;SDS011;2052;53.522;9.806;2023-12-14T11:32:15;10.20;;;4.87;;
4074;SDS011;2052;53.522;9.806;2023-12-14T11:34:43;9.17;;;5.30;;
4074;SDS011;2052;53.522;9.806;2023-12-14T11:37:12;10.20;;;5.10;;
4074;SDS011;2052;53.522;9.806;2023-12-14T11:39:38;8.63;;;4.93;;
4074;SDS011;2052;53.522;9.806;2023-12-14T11:42:05;11.00;;;5.70;;
4074;SDS011;2052;53.522;9.806;2023-12-14T11:44:33;7.97;;;5.27;;
4074;SDS011;2052;53.522;9.806;2023-12-14T11:47:01;8.90;;;5.37;;
4074;SDS011;2052;53.522;9.806;2023-12-14T11:49:30;11.70;;;4.87;;
4074;SDS011;2052;53.522;9.806;2023-12-14T11:51:57;7.90;;;5.03;;
4074;SDS011;2052;53.522;9.806;2023-12-14T11:54:23;8.07;;;5.00;;
4074;SDS011;2052;53.522;9.806;2023-12-14T11:56:50;9.27;;;5.00;;
4074;SDS011;2052;53.522;9.806;2023-12-14T11:59:17;11.07;;;5.13;;
4074;SDS011;2052;53.522;9.806;2023-12-14T12:01:55;9.73;;;5.57;;
4074;SDS011;2052;53.522;9.806;2023-12-14T12:04:22;7.90;;;5.17;;
4074;SDS011;2052;53.522;9.806;2023-12-14T12:06:51;6.23;;;5.00;;
4074;SDS011;2052;53.522;9.806;2023-12-14T12:09:34;6.17;;;4.13;;
4074;SDS011;2052;53.522;9.806;2023-12-14T12:12:04;12.73;;;5.90;;
4074;SDS011;2052;53.522;9.806;2023-12-14T12:14:32;10.57;;;5.60;;
4074;SDS011;2052;53.522;9.806;2023-12-14T12:16:58;13.07;;;5.77;;
4074;SDS011;2052;53.522;9.806;2023-12-14T12:19:25;11.73;;;5.80;;
4074;SDS011;2052;53.522;9.806;2023-12-14T12:21:53;7.63;;;5.20;;
4074;SDS011;2052;53.522;9.806;2023-12-14T12:24:19;10.07;;;5.30;;
4074;SDS011;2052;53.522;9.806;2023-12-14T12:26:46;8.23;;;5.20;;
4074;SDS011;2052;53.522;9.806;2023-12-14T12:29:13;8.70;;;5.27;;
4074;SDS011;2052;53.522;9.806;2023-12-14T12:31:39;6.80;;;3.80;;
4074;SDS011;2052;53.522;9.806;2023-12-14T12:34:07;11.17;;;5.30;;
4074;SDS011;2052;53.522;9.806;2023-12-14T12:36:34;8.00;;;5.40;;
4074;SDS011;2052;53.522;9.806;2023-12-14T12:39:03;8.00;;;5.37;;
4074;SDS011;2052;53.522;9.806;2023-12-14T12:41:31;7.80;;;4.77;;
4074;SDS011;2052;53.522;9.806;2023-12-14T12:43:57;7.60;;;6.00;;
4074;SDS011;2052;53.522;9.806;2023-12-14T12:46:24;13.07;;;5.37;;
4074;SDS011;2052;53.522;9.806;2023-12-14T12:48:51;12.30;;;5.10;;
4074;SDS011;2052;53.522;9.806;2023-12-14T12:51:17;8.93;;;5.40;;
4074;SDS011;2052;53.522;9.806;2023-12-14T12:53:44;9.90;;;5.37;;
4074;SDS011;2052;53.522;9.806;2023-12-14T12:56:12;11.80;;;5.80;;
4074;SDS011;2052;53.522;9.806;2023-12-14T12:58:39;7.50;;;5.13;;
4074;SDS011;2052;53.522;9.806;2023-12-14T13:01:06;8.83;;;5.10;;
4074;SDS011;2052;53.522;9.806;2023-12-14T13:03:33;10.07;;;5.63;;
4074;SDS011;2052;53.522;9.806;2023-12-14T13:06:00;16.53;;;6.17;;
4074;SDS011;2052;53.522;9.806;2023-12-14T13:08:26;11.20;;;6.10;;
4074;SDS011;2052;53.522;9.806;2023-12-14T13:10:53;9.93;;;5.77;;
4074;SDS011;2052;53.522;9.806;2023-12-14T13:13:21;9.80;;;5.20;;
4074;SDS011;2052;53.522;9.806;2023-12-14T13:15:48;10.80;;;5.97;;
4074;SDS011;2052;53.522;9.806;2023-12-14T13:18:14;11.63;;;6.37;;
4074;SDS011;2052;53.522;9.806;2023-12-14T13:20:41;13.13;;;5.77;;
4074;SDS011;2052;53.522;9.806;2023-12-14T13:23:08;7.43;;;4.57;;
4074;SDS011;2052;53.522;9.806;2023-12-14T13:25:35;16.37;;;5.83;;
4074;SDS011;2052;53.522;9.806;2023-12-14T13:28:01;7.90;;;4.90;;
4074;SDS011;2052;53.522;9.806;2023-12-14T13:30:31;10.03;;;5.70;;
4074;SDS011;2052;53.522;9.806;2023-12-14T13:32:57;12.17;;;6.20;;
4074;SDS011;2052;53.522;9.806;2023-12-14T13:35:24;11.67;;;5.73;;
4074;SDS011;2052;53.522;9.806;2023-12-14T13:37:52;17.87;;;5.13;;
4074;SDS011;2052;53.522;9.806;2023-12-14T13:40:19;13.53;;;6.83;;
4074;SDS011;2052;53.522;9.806;2023-12-14T13:42:46;11.20;;;5.53;;
4074;SDS011;2052;53.522;9.806;2023-12-14T13:45:12;10.87;;;6.70;;
4074;SDS011;2052;53.522;9.806;2023-12-14T13:47:40;11.70;;;5.90;;
4074;SDS011;2052;53.522;9.806;2023-12-14T13:50:07;7.77;;;5.50;;
4074;SDS011;2052;53.522;9.806;2023-12-14T13:52:33;10.40;;;5.57;;
4074;SDS011;2052;53.522;9.806;2023-12-14T13:55:00;10.93;;;6.40;;
4074;SDS011;2052;53.522;9.806;2023-12-14T13:57:27;16.23;;;6.80;;
4074;SDS011;2052;53.522;9.806;2023-12-14T13:59:53;9.90;;;5.40;;
4074;SDS011;2052;53.522;9.806;2023-12-14T14:02:20;11.27;;;5.50;;
4074;SDS011;2052;53.522;9.806;2023-12-14T14:04:49;15.20;;;6.60;;
4074;SDS011;2052;53.522;9.806;2023-12-14T14:07:17;13.67;;;6.13;;
4074;SDS011;2052;53.522;9.806;2023-12-14T14:09:43;10.07;;;4.90;;
4074;SDS011;2052;53.522;9.806;2023-12-14T14:12:10;13.70;;;5.23;;
4074;SDS011;2052;53.522;9.806;2023-12-14T14:14:37;8.20;;;5.13;;
4074;SDS011;2052;53.522;9.806;2023-12-14T14:17:04;11.40;;;5.90;;
4074;SDS011;2052;53.522;9.806;2023-12-14T14:19:32;13.00;;;6.73;;
4074;SDS011;2052;53.522;9.806;2023-12-14T14:22:00;9.47;;;5.30;;
4074;SDS011;2052;53.522;9.806;2023-12-14T14:24:27;12.67;;;5.83;;
4074;SDS011;2052;53.522;9.806;2023-12-14T14:26:53;9.10;;;6.00;;
4074;SDS011;2052;53.522;9.806;2023-12-14T14:29:20;13.63;;;6.43;;
4074;SDS011;2052;53.522;9.806;2023-12-14T14:31:46;11.57;;;5.07;;
4074;SDS011;2052;53.522;9.806;2023-12-14T14:34:13;14.60;;;6.10;;
4074;SDS011;2052;53.522;9.806;2023-12-14T14:36:40;11.33;;;6.50;;
4074;SDS011;2052;53.522;9.806;2023-12-14T14:39:08;12.70;;;5.90;;
4074;SDS011;2052;53.522;9.806;2023-12-14T14:41:35;12.20;;;6.00;;
4074;SDS011;2052;53.522;9.806;2023-12-14T14:44:02;12.27;;;7.90;;
4074;SDS011;2052;53.522;9.806;2023-12-14T14:46:29;14.70;;;5.93;;
4074;SDS011;2052;53.522;9.806;2023-12-14T14:48:56;13.20;;;5.63;;
4074;SDS011;2052;53.522;9.806;2023-12-14T14:51:25;10.27;;;6.20;;
4074;SDS011;2052;53.522;9.806;2023-12-14T14:53:52;9.23;;;5.67;;
4074;SDS011;2052;53.522;9.806;2023-12-14T14:56:19;13.13;;;5.80;;
4074;SDS011;2052;53.522;9.806;2023-12-14T14:58:46;13.70;;;5.97;;
4074;SDS011;2052;53.522;9.806;2023-12-14T15:01:13;11.30;;;6.30;;
4074;SDS011;2052;53.522;9.806;2023-12-14T15:03:39;11.77;;;5.53;;
4074;SDS011;2052;53.522;9.806;2023-12-14T15:06:06;16.63;;;5.93;;
4074;SDS011;2052;53.522;9.806;2023-12-14T15:08:33;9.20;;;5.53;;
4074;SDS011;2052;53.522;9.806;2023-12-14T15:10:59;17.00;;;7.37;;
4074;SDS011;2052;53.522;9.806;2023-12-14T15:13:28;24.90;;;10.73;;